Time;durP1;ratioP1;P1;durP2;ratioP2;P2;SDS_P1;SDS_P2;PMS_P1;PMS_P2;Temp;Humidity;BMP_temperature;BMP_pressure;BME280_temperature;BME280_humidity;BME280_pressure;Samples;Min_cycle;Max_cycle;Signal;HPM_P1;HPM_P2
2022/08/22 00:00:14;;;;;;;0.90;0.75;;;11.90;1.40;;;13.32;100.00;95250.31;646076;216;31479;-72
2022/08/22 00:08:23;;;;;;;0.60;0.60;;;11.90;1.40;;;13.27;100.00;95252.14;647490;216;32054;-74
2022/08/22 00:11:11;;;;;;;1.40;1.30;;;12.00;1.40;;;13.27;100.00;95249.36;644205;216;40983;-71
2022/08/22 00:13:54;;;;;;;1.48;1.37;;;12.00;1.40;;;13.32;100.00;95250.55;648030;216;42679;-71
2022/08/22 00:16:44;;;;;;;1.50;0.60;;;12.20;1.40;;;13.39;100.00;95245.69;638026;216;42961;-71
2022/08/22 00:19:48;;;;;;;0.77;0.77;;;12.30;1.40;;;13.38;100.00;95243.63;644984;212;42163;-72
2022/08/22 00:22:49;;;;;;;0.65;0.60;;;12.20;1.40;;;13.45;100.00;95249.25;649741;216;42133;-71
2022/08/22 00:25:53;;;;;;;0.40;0.20;;;12.30;1.40;;;13.64;100.00;95245.68;646053;212;42020;-73
2022/08/22 00:28:38;;;;;;;2.30;1.00;;;12.60;1.40;;;13.75;100.00;95244.30;647365;216;31654;-71
2022/08/22 00:31:34;;;;;;;1.50;0.60;;;12.70;1.40;;;13.76;100.00;95245.37;647877;216;42392;-72
2022/08/22 00:35:52;;;;;;;0.60;0.60;;;12.50;1.40;;;13.62;100.00;95244.17;644695;212;32070;-74
2022/08/22 00:38:34;;;;;;;0.60;0.55;;;12.30;1.40;;;13.52;100.00;95238.59;649453;216;31652;-72
2022/08/22 00:41:24;;;;;;;1.10;0.60;;;12.20;1.40;;;13.43;100.00;95241.78;646466;215;42120;-71
2022/08/22 00:44:37;;;;;;;1.50;1.40;;;12.10;1.40;;;13.49;100.00;95241.73;648232;216;42121;-72
2022/08/22 00:50:43;;;;;;;0.90;0.90;;;12.30;1.40;;;13.63;100.00;95244.48;646529;216;32110;-71
2022/08/22 00:56:56;;;;;;;0.40;0.20;;;12.40;1.40;;;13.69;100.00;95242.54;648346;216;31574;-71
2022/08/22 01:05:32;;;;;;;0.40;0.40;;;12.40;1.40;;;13.67;100.00;95237.19;650665;216;31519;-70
2022/08/22 01:08:21;;;;;;;0.50;0.40;;;12.40;1.40;;;13.63;100.00;95233.66;644723;216;31646;-74
2022/08/22 01:11:10;;;;;;;0.50;0.50;;;12.20;1.40;;;13.55;100.00;95237.42;646899;212;40221;-74
2022/08/22 01:14:23;;;;;;;0.40;0.40;;;12.10;1.40;;;13.46;100.00;95236.98;646078;216;31524;-74
2022/08/22 01:17:14;;;;;;;1.90;1.42;;;12.00;1.40;;;13.40;100.00;95233.80;645962;212;41980;-72
2022/08/22 01:20:08;;;;;;;1.40;1.30;;;12.00;1.40;;;13.43;100.00;95236.77;646865;216;31547;-72
2022/08/22 01:23:30;;;;;;;0.50;0.50;;;12.20;1.40;;;13.53;100.00;95233.58;646853;216;32553;-75
2022/08/22 01:29:18;;;;;;;0.60;0.60;;;12.40;1.40;;;13.70;100.00;95227.35;646024;216;31533;-73
2022/08/22 01:32:19;;;;;;;0.90;0.70;;;12.50;1.40;;;13.67;100.00;95227.05;619244;226;42503;-72
2022/08/22 01:38:57;;;;;;;1.02;0.93;;;12.40;1.40;;;13.65;100.00;95226.45;647283;216;31613;-72
2022/08/22 01:41:47;;;;;;;0.85;0.85;;;12.40;1.40;;;13.65;100.00;95224.28;645198;216;31557;-73
2022/08/22 01:45:01;;;;;;;0.90;0.90;;;12.40;1.40;;;13.68;100.00;95222.77;646973;216;42543;-71
2022/08/22 01:47:53;;;;;;;0.40;0.25;;;12.50;1.40;;;13.70;100.00;95222.20;649751;212;42097;-74
2022/08/22 01:50:37;;;;;;;0.45;0.45;;;12.50;1.40;;;13.67;100.00;95225.79;648346;216;40800;-73
2022/08/22 01:53:46;;;;;;;0.60;0.60;;;12.50;1.40;;;13.60;100.00;95228.94;649778;216;31496;-73
2022/08/22 01:56:27;;;;;;;0.70;0.50;;;12.40;1.40;;;13.49;100.00;95226.98;648590;212;42092;-74
2022/08/22 01:59:10;;;;;;;1.10;1.00;;;12.30;1.40;;;13.48;100.00;95227.78;645632;216;42130;-71
2022/08/22 02:01:53;;;;;;;0.60;0.40;;;12.30;1.40;;;13.50;100.00;95225.20;646302;216;33684;-74
2022/08/22 02:04:43;;;;;;;1.30;1.20;;;12.30;1.40;;;13.46;100.00;95230.84;646974;216;40697;-71
2022/08/22 02:07:47;;;;;;;0.50;0.40;;;12.30;1.40;;;13.45;100.00;95223.64;646766;212;31523;-73
2022/08/22 02:10:56;;;;;;;0.40;0.30;;;12.30;1.40;;;13.49;100.00;95222.28;644833;212;42706;-72
2022/08/22 02:13:45;;;;;;;1.30;1.20;;;12.40;1.40;;;13.48;100.00;95219.60;646714;216;36132;-73
2022/08/22 02:16:35;;;;;;;1.27;1.17;;;12.40;1.40;;;13.48;100.00;95223.20;634499;212;32359;-72
2022/08/22 02:19:25;;;;;;;0.40;0.40;;;12.40;1.40;;;13.46;100.00;95228.98;646765;216;31562;-72
2022/08/22 02:22:21;;;;;;;0.40;0.20;;;12.30;1.40;;;13.42;100.00;95241.94;647040;216;31495;-72
2022/08/22 02:25:22;;;;;;;0.50;0.50;;;12.00;1.40;;;13.08;100.00;95236.95;621371;225;35800;-72
2022/08/22 02:28:08;;;;;;;1.30;0.90;;;11.60;1.40;;;13.12;100.00;95243.64;651860;216;31540;-73
2022/08/22 02:30:53;;;;;;;0.70;0.70;;;11.60;1.40;;;12.95;100.00;95240.59;646958;216;42127;-73
2022/08/22 02:35:54;;;;;;;1.00;0.73;;;11.50;1.40;;;12.75;100.00;95243.16;645738;216;43610;-71
2022/08/22 02:38:37;;;;;;;2.40;0.40;;;11.40;1.40;;;12.65;100.00;95241.53;646222;216;31534;-72
2022/08/22 02:43:57;;;;;;;0.40;0.40;;;11.20;1.40;;;12.69;100.00;95245.09;645672;216;31519;-72
2022/08/22 02:46:48;;;;;;;0.82;0.57;;;11.20;1.40;;;12.64;100.00;95246.82;644343;216;42118;-72
2022/08/22 02:49:48;;;;;;;1.60;0.70;;;11.10;1.40;;;12.58;100.00;95246.58;619135;226;36027;-72
2022/08/22 02:52:53;;;;;;;0.70;0.53;;;11.10;1.40;;;12.51;100.00;95239.38;647410;216;38729;-72
2022/08/22 02:58:18;;;;;;;1.12;1.12;;;11.10;1.40;;;12.66;100.00;95237.75;647973;216;42672;-72
2022/08/22 03:01:13;;;;;;;0.80;0.80;;;11.60;1.40;;;12.78;100.00;95232.13;648353;216;31485;-71
2022/08/22 03:07:14;;;;;;;0.80;0.80;;;11.70;1.40;;;12.88;100.00;95240.14;648182;216;31501;-71
2022/08/22 03:12:59;;;;;;;0.50;0.40;;;11.50;1.40;;;12.68;100.00;95243.06;643842;212;31577;-71
2022/08/22 03:15:49;;;;;;;0.40;0.40;;;11.30;1.40;;;12.54;100.00;95238.63;641624;216;31637;-71
2022/08/22 03:18:30;;;;;;;8.40;1.40;;;11.20;1.40;;;12.52;100.00;95237.73;648415;212;34577;-71
2022/08/22 03:23:51;;;;;;;0.50;0.50;;;11.10;1.40;;;12.50;100.00;95242.34;645989;213;31546;-71
2022/08/22 03:26:46;;;;;;;0.40;0.20;;;11.10;1.40;;;12.45;100.00;95239.96;649550;216;34530;-71
2022/08/22 03:29:29;;;;;;;0.70;0.40;;;11.00;1.40;;;12.38;100.00;95243.03;647626;216;31518;-71
2022/08/22 03:32:13;;;;;;;3.50;0.70;;;10.90;1.40;;;12.33;100.00;95244.03;647404;216;31616;-73
2022/08/22 03:35:57;;;;;;;0.60;0.43;;;10.80;1.40;;;12.22;100.00;95242.78;650738;215;31541;-71
2022/08/22 03:39:05;;;;;;;2.10;0.80;;;10.90;1.40;;;12.33;100.00;95242.24;647536;216;34477;-71
2022/08/22 03:42:01;;;;;;;1.10;1.00;;;11.20;1.40;;;12.40;100.00;95242.23;647443;216;31638;-70
2022/08/22 03:45:06;;;;;;;1.00;0.70;;;11.10;1.40;;;12.40;100.00;95242.23;621586;222;31924;-71
2022/08/22 03:48:08;;;;;;;1.20;0.63;;;11.00;1.40;;;12.25;100.00;95245.70;646357;216;32180;-71
2022/08/22 03:53:36;;;;;;;0.40;0.40;;;10.70;1.40;;;12.07;100.00;95251.44;647067;212;31551;-71
2022/08/22 03:59:26;;;;;;;1.00;1.00;;;10.60;1.40;;;11.98;100.00;95256.56;646637;216;31489;-71
2022/08/22 04:02:29;;;;;;;0.90;0.90;;;10.50;1.40;;;11.93;100.00;95257.42;644567;216;32033;-71
2022/08/22 04:05:37;;;;;;;0.50;0.40;;;10.50;1.40;;;11.87;100.00;95258.37;633617;221;31702;-71
2022/08/22 04:08:36;;;;;;;0.40;0.30;;;10.50;1.40;;;11.86;100.00;95261.34;646056;216;31502;-70
2022/08/22 04:12:00;;;;;;;0.73;0.73;;;10.40;1.40;;;11.80;100.00;95259.13;648246;216;32347;-71
2022/08/22 04:14:55;;;;;;;0.67;0.67;;;10.30;1.40;;;11.79;100.00;95265.84;646862;212;31517;-70
2022/08/22 04:20:23;;;;;;;1.70;0.80;;;10.30;1.40;;;11.79;100.00;95264.65;648889;212;32056;-71
2022/08/22 04:25:42;;;;;;;2.33;1.10;;;10.50;1.40;;;11.73;100.00;95268.11;646951;212;32072;-70
2022/08/22 04:28:31;;;;;;;0.70;0.50;;;10.30;1.40;;;11.71;100.00;95264.67;647427;216;31503;-71
2022/08/22 04:31:12;;;;;;;0.60;0.60;;;10.30;1.40;;;11.74;100.00;95256.80;620589;225;32031;-71
2022/08/22 04:36:14;;;;;;;1.20;0.85;;;10.30;1.40;;;11.62;100.00;95264.17;619434;226;31936;-72
2022/08/22 04:39:02;;;;;;;1.63;1.07;;;10.30;1.40;;;11.49;100.00;95266.41;647059;216;31626;-72
2022/08/22 04:41:47;;;;;;;0.68;0.50;;;10.30;1.40;;;11.42;100.00;95266.50;644587;216;42238;-72
2022/08/22 04:44:30;;;;;;;0.40;0.20;;;10.30;1.40;;;11.33;100.00;95270.62;618541;226;31878;-72
2022/08/22 04:52:48;;;;;;;0.50;0.50;;;10.50;1.40;;;11.60;100.00;95267.20;646112;216;42692;-71
2022/08/22 04:55:42;;;;;;;0.70;0.70;;;10.60;1.40;;;11.82;100.00;95260.70;622233;226;32317;-71
2022/08/22 04:58:44;;;;;;;1.40;1.00;;;10.80;1.40;;;11.91;100.00;95261.92;645463;216;31517;-72
2022/08/22 05:01:25;;;;;;;0.62;0.62;;;11.00;1.40;;;12.04;100.00;95256.21;648204;216;37281;-72
2022/08/22 05:04:08;;;;;;;0.70;0.62;;;11.00;1.40;;;12.17;100.00;95259.38;645344;216;42971;-71
2022/08/22 05:06:52;;;;;;;0.40;0.40;;;11.10;1.40;;;12.30;100.00;95262.27;646301;216;32135;-72
2022/08/22 05:09:32;;;;;;;0.80;0.70;;;11.20;1.40;;;12.36;100.00;95263.52;645619;216;31919;-71
2022/08/22 05:12:14;;;;;;;0.60;0.60;;;11.20;1.40;;;12.44;100.00;95267.88;647082;212;31572;-72
2022/08/22 05:14:57;;;;;;;1.45;1.35;;;11.20;1.40;;;12.53;100.00;95266.80;644885;216;32840;-72
2022/08/22 05:17:38;;;;;;;0.43;0.43;;;11.30;1.40;;;12.67;100.00;95277.31;645301;216;31598;-72
2022/08/22 05:20:20;;;;;;;1.20;0.70;;;11.40;1.40;;;12.82;100.00;95272.69;646432;216;32707;-72
2022/08/22 05:23:03;;;;;;;0.40;0.20;;;11.50;1.40;;;12.89;100.00;95274.81;647110;216;36169;-72
2022/08/22 05:25:45;;;;;;;0.40;0.30;;;11.50;1.40;;;13.08;100.00;95277.16;647372;216;31502;-71
2022/08/22 05:28:33;;;;;;;0.70;0.50;;;11.70;1.40;;;13.20;100.00;95274.80;647382;216;37924;-74
2022/08/22 05:31:15;;;;;;;0.40;0.40;;;11.80;1.40;;;13.25;100.00;95281.67;645956;216;34811;-71
2022/08/22 05:36:01;;;;;;;1.00;0.90;;;11.80;1.40;;;13.38;100.00;95279.58;646689;216;31533;-71
2022/08/22 05:38:45;;;;;;;2.50;2.30;;;12.00;1.40;;;13.49;100.00;95278.90;646345;216;36768;-72
2022/08/22 05:41:26;;;;;;;0.40;0.30;;;12.10;1.40;;;13.59;100.00;95277.89;645672;216;42188;-71
2022/08/22 05:44:18;;;;;;;0.68;0.68;;;12.20;1.40;;;13.72;100.00;95285.75;648044;216;31553;-71
2022/08/22 05:49:37;;;;;;;1.50;1.40;;;12.50;1.40;;;14.03;100.00;95289.83;645519;216;31497;-72
2022/08/22 05:52:43;;;;;;;0.47;0.37;;;12.60;1.40;;;14.20;100.00;95291.50;646425;216;31809;-72
2022/08/22 05:55:26;;;;;;;1.27;1.17;;;12.90;1.40;;;14.39;100.00;95294.79;619091;226;32445;-71
2022/08/22 05:58:42;;;;;;;0.40;0.30;;;13.00;1.40;;;14.59;100.00;95296.89;647292;216;31490;-72
2022/08/22 06:01:33;;;;;;;1.60;1.50;;;13.30;1.40;;;14.78;100.00;95297.71;647432;212;31547;-71
2022/08/22 06:04:20;;;;;;;0.70;0.70;;;13.50;1.40;;;14.95;100.00;95299.91;647615;216;31540;-71
2022/08/22 06:07:17;;;;;;;1.30;1.20;;;13.60;1.40;;;15.04;100.00;95299.65;645892;216;31485;-70
2022/08/22 06:10:23;;;;;;;0.70;0.70;;;13.60;1.40;;;15.14;100.00;95301.27;605730;231;32003;-70
2022/08/22 06:13:05;;;;;;;1.37;1.27;;;13.80;1.40;;;15.34;100.00;95306.89;647549;216;32053;-70
2022/08/22 06:15:50;;;;;;;1.20;0.80;;;13.90;1.40;;;15.46;100.00;95310.12;648103;216;31584;-69
2022/08/22 06:18:31;;;;;;;0.98;0.95;;;14.00;1.40;;;15.57;100.00;95310.00;646595;216;31770;-70
2022/08/22 06:21:17;;;;;;;1.27;1.27;;;14.10;1.40;;;15.65;100.00;95304.39;650971;213;42095;-70
2022/08/22 06:23:59;;;;;;;2.78;2.17;;;14.20;1.40;;;15.65;100.00;95311.56;645598;212;31523;-70
2022/08/22 06:26:42;;;;;;;1.90;1.60;;;14.40;1.40;;;15.84;100.00;95309.56;618238;226;42521;-70
2022/08/22 06:29:29;;;;;;;2.40;1.90;;;14.50;1.40;;;16.10;100.00;95314.73;646285;216;31526;-70
2022/08/22 06:38:50;;;;;;;1.50;1.23;;;14.80;1.40;;;16.41;100.00;95317.98;645862;216;31593;-70
2022/08/22 06:41:31;;;;;;;2.22;2.03;;;14.90;1.40;;;16.56;100.00;95321.52;645431;216;31513;-70
2022/08/22 06:44:13;;;;;;;1.40;0.80;;;15.00;1.40;;;16.64;100.00;95315.41;644888;216;32043;-70
2022/08/22 06:46:58;;;;;;;1.90;1.60;;;15.20;1.40;;;16.84;100.00;95312.17;646554;216;31591;-70
2022/08/22 06:49:39;;;;;;;2.25;1.17;;;15.30;1.40;;;16.99;100.00;95314.86;619623;225;32475;-70
2022/08/22 06:52:22;;;;;;;1.87;1.15;;;15.40;1.40;;;17.19;100.00;95316.83;647176;216;31610;-70
2022/08/22 06:55:03;;;;;;;2.00;1.60;;;15.60;1.40;;;17.32;100.00;95318.88;646861;216;31553;-70
2022/08/22 06:57:48;;;;;;;1.60;1.35;;;15.70;1.40;;;17.44;100.00;95323.19;644428;216;32142;-70
2022/08/22 07:00:29;;;;;;;1.40;1.30;;;15.80;1.40;;;17.54;100.00;95328.22;648595;212;31530;-70
2022/08/22 07:03:13;;;;;;;2.60;1.40;;;16.10;1.40;;;17.75;100.00;95326.89;645131;216;31502;-70
2022/08/22 07:05:54;;;;;;;2.57;1.47;;;16.30;1.40;;;17.82;100.00;95330.03;647651;212;33199;-68
2022/08/22 07:08:36;;;;;;;2.35;1.60;;;16.30;1.40;;;17.95;100.00;95335.63;645110;216;31588;-70
2022/08/22 07:12:40;;;;;;;2.95;1.60;;;16.60;1.40;;;18.36;100.00;95334.48;621193;226;32193;-70
2022/08/22 07:15:38;;;;;;;2.55;1.98;;;16.80;1.40;;;18.50;100.00;95334.58;645125;216;32011;-69
2022/08/22 07:18:20;;;;;;;2.80;2.05;;;17.20;1.40;;;18.90;100.00;95331.14;644159;216;31912;-70
2022/08/22 07:21:08;;;;;;;3.73;2.20;;;17.60;1.40;;;19.47;100.00;95337.82;648160;216;42189;-71
2022/08/22 07:23:55;;;;;;;3.45;2.53;;;18.10;1.40;;;20.15;100.00;95338.80;645180;216;31561;-70
2022/08/22 07:26:44;;;;;;;3.17;2.00;;;18.60;1.40;;;20.62;100.00;95330.74;646275;216;32117;-70
2022/08/22 07:31:03;;;;;;;3.20;2.60;;;19.10;1.40;;;21.01;100.00;95334.73;646053;216;42781;-70
2022/08/22 07:35:53;;;;;;;3.08;2.35;;;19.30;1.40;;;21.48;100.00;95326.75;645981;213;31583;-70
2022/08/22 07:38:41;;;;;;;2.90;1.90;;;19.40;1.40;;;21.98;100.00;95327.73;648109;216;31870;-69
2022/08/22 07:41:19;;;;;;;4.03;2.62;;;20.00;1.40;;;22.08;100.00;95326.73;646123;212;31581;-71
2022/08/22 07:44:16;;;;;;;5.75;2.60;;;19.90;1.40;;;21.27;100.00;95330.81;646539;212;31553;-71
2022/08/22 07:47:02;;;;;;;4.53;2.70;;;19.50;1.40;;;21.55;100.00;95323.55;647218;212;31801;-71
2022/08/22 07:49:50;;;;;;;3.92;2.33;;;19.80;1.40;;;21.55;100.00;95318.99;646885;212;31737;-71
2022/08/22 07:52:35;;;;;;;3.43;2.90;;;19.80;1.40;;;21.64;100.00;95318.45;632712;222;32636;-71
2022/08/22 07:55:21;;;;;;;3.43;2.77;;;19.80;1.40;;;21.88;100.00;95322.66;645464;213;31576;-71
2022/08/22 07:58:02;;;;;;;4.10;2.63;;;20.00;1.40;;;21.62;100.00;95325.47;646601;212;32458;-71
2022/08/22 08:00:43;;;;;;;4.75;2.65;;;19.70;1.40;;;21.75;100.00;95324.89;644515;212;31765;-71
2022/08/22 08:03:27;;;;;;;2.85;2.03;;;19.70;1.40;;;22.25;100.00;95322.52;651062;216;31504;-71
2022/08/22 08:06:08;;;;;;;2.60;2.10;;;20.30;1.40;;;21.67;100.00;95325.03;644890;212;31556;-72
2022/08/22 08:08:50;;;;;;;2.72;2.42;;;20.40;1.40;;;21.50;100.00;95325.64;647264;216;32099;-71
2022/08/22 08:11:32;;;;;;;2.58;2.00;;;20.50;1.40;;;21.80;100.00;95321.45;648898;216;33384;-70
2022/08/22 08:14:13;;;;;;;2.73;2.30;;;20.70;1.40;;;22.18;100.00;95322.80;645357;212;31594;-71
2022/08/22 08:16:56;;;;;;;4.10;2.50;;;20.90;1.40;;;22.17;100.00;95328.33;637145;216;31885;-70
2022/08/22 08:19:37;;;;;;;2.12;2.00;;;20.80;1.40;;;22.70;100.00;95323.73;642364;217;31906;-70
2022/08/22 08:22:20;;;;;;;2.00;1.60;;;21.20;1.40;;;22.91;100.00;95319.25;646059;216;31561;-71
2022/08/22 08:26:38;;;;;;;2.72;2.37;;;21.10;1.40;;;22.83;100.00;95316.15;644667;216;31564;-70
2022/08/22 08:29:20;;;;;;;3.45;2.30;;;21.10;1.40;;;23.13;100.00;95316.52;648635;212;31614;-71
2022/08/22 08:32:01;;;;;;;2.97;2.10;;;21.50;1.40;;;22.61;100.00;95316.52;620434;225;42852;-71
2022/08/22 08:36:00;;;;;;;3.30;2.37;;;21.40;1.40;;;22.99;100.00;95313.48;645326;216;31596;-71
2022/08/22 08:38:59;;;;;;;2.17;1.92;;;21.60;1.40;;;23.17;100.00;95316.14;647505;216;31640;-72
2022/08/22 08:41:53;;;;;;;2.40;1.80;;;22.00;1.40;;;23.26;97.88;95312.71;649763;216;31531;-71
2022/08/22 08:45:13;;;;;;;2.70;1.70;;;22.20;1.40;;;23.85;97.46;95307.30;645240;216;31561;-71
2022/08/22 08:48:38;;;;;;;2.17;1.77;;;22.40;1.40;;;23.58;93.90;95312.19;644560;216;31688;-71
2022/08/22 08:54:28;;;;;;;2.10;1.90;;;23.10;1.40;;;24.48;93.87;95311.77;647014;216;31564;-71
2022/08/22 08:57:18;;;;;;;3.47;2.17;;;23.20;1.40;;;24.59;94.58;95313.39;620478;226;32293;-70
2022/08/22 09:00:13;;;;;;;2.83;2.40;;;23.50;1.40;;;24.78;90.87;95314.48;643768;216;42977;-70
2022/08/22 09:03:14;;;;;;;2.65;2.25;;;23.70;1.40;;;25.50;92.00;95310.19;646335;216;42243;-71
2022/08/22 09:06:15;;;;;;;3.80;2.20;;;25.20;1.40;;;27.13;76.08;95305.55;646626;216;31550;-71
2022/08/22 09:09:19;;;;;;;2.90;2.40;;;28.80;1.40;;;28.31;69.03;95297.24;646694;216;32115;-71
2022/08/22 09:15:10;;;;;;;5.28;2.12;;;29.90;1.40;;;30.54;65.50;95298.81;646431;216;31811;-71
2022/08/22 09:18:09;;;;;;;4.12;1.60;;;31.40;1.40;;;32.05;56.95;95290.84;646553;212;31650;-71
2022/08/22 09:23:40;;;;;;;2.08;1.87;;;30.60;1.40;;;31.09;55.15;95299.25;646351;216;31650;-72
2022/08/22 09:26:42;;;;;;;1.73;1.50;;;30.90;1.40;;;34.27;54.65;95293.75;646283;216;31659;-72
2022/08/22 09:29:43;;;;;;;2.70;1.90;;;32.40;1.40;;;34.59;48.55;95298.23;645349;212;34336;-72
2022/08/22 09:36:05;;;;;;;2.45;2.25;;;33.50;1.40;;;32.82;50.45;95299.75;644798;216;31723;-71
2022/08/22 09:38:53;;;;;;;2.25;1.70;;;31.40;1.40;;;34.72;44.36;95289.75;646234;216;31670;-71
2022/08/22 09:41:37;;;;;;;3.00;1.65;;;31.40;1.40;;;34.80;44.49;95289.58;646819;216;31545;-72
2022/08/22 09:44:37;;;;;;;3.05;1.75;;;31.80;1.40;;;34.81;46.88;95289.52;645266;212;31593;-72
2022/08/22 09:47:22;;;;;;;1.92;1.62;;;33.30;1.40;;;35.08;44.48;95288.98;646746;216;42817;-70
2022/08/22 09:50:15;;;;;;;2.78;1.40;;;33.60;1.40;;;34.81;46.42;95290.70;646013;216;31766;-72
2022/08/22 09:53:17;;;;;;;1.83;1.73;;;33.10;1.40;;;37.58;39.81;95288.75;645294;216;32933;-72
2022/08/22 09:56:05;;;;;;;1.65;1.50;;;33.90;1.40;;;38.05;39.37;95288.73;618916;226;32078;-71
2022/08/22 09:59:01;;;;;;;1.75;1.65;;;34.90;1.40;;;34.48;38.86;95295.73;645318;216;31655;-72
2022/08/22 10:01:57;;;;;;;1.80;1.60;;;32.30;1.40;;;36.20;38.02;95284.98;646202;212;31521;-73
2022/08/22 10:07:35;;;;;;;1.77;1.50;;;33.00;1.40;;;37.23;36.42;95282.32;646440;216;31874;-71
2022/08/22 10:10:25;;;;;;;2.00;1.80;;;32.60;1.40;;;36.90;37.00;95286.73;646615;216;31640;-72
2022/08/22 10:13:10;;;;;;;1.83;1.70;;;32.60;1.40;;;37.29;36.90;95288.43;645527;216;31735;-72
2022/08/22 10:15:56;;;;;;;2.00;1.90;;;32.70;1.40;;;36.38;38.96;95289.94;639089;216;32372;-71
2022/08/22 10:19:08;;;;;;;3.40;1.50;;;32.80;99.90;;;37.80;36.54;95288.72;645628;216;31609;-73
2022/08/22 10:24:59;;;;;;;1.80;1.70;;;34.10;99.90;;;36.17;38.66;95287.41;642344;214;31574;-73
2022/08/22 10:27:57;;;;;;;1.70;1.40;;;33.30;99.90;;;38.56;35.46;95284.69;646845;212;31564;-73
2022/08/22 10:30:50;;;;;;;1.67;1.45;;;34.00;99.90;;;38.09;33.69;95281.53;646041;216;31626;-73
2022/08/22 10:36:12;;;;;;;1.70;1.60;;;34.40;99.90;;;38.98;31.17;95281.55;646361;216;42877;-73
2022/08/22 10:38:54;;;;;;;1.50;1.40;;;33.70;99.90;;;37.82;34.44;95282.26;646191;216;31552;-71
2022/08/22 10:41:38;;;;;;;1.60;1.30;;;34.20;99.90;;;39.88;31.81;95278.19;646375;216;31511;-71
2022/08/22 10:44:30;;;;;;;1.60;1.50;;;35.30;99.90;;;39.04;30.27;95283.08;646794;214;31603;-73
2022/08/22 10:47:14;;;;;;;1.80;1.53;;;35.10;99.90;;;40.15;31.45;95280.34;645934;216;31605;-71
2022/08/22 10:49:57;;;;;;;1.27;1.17;;;35.30;99.90;;;39.85;32.85;95279.08;646183;212;31527;-73
2022/08/22 10:52:43;;;;;;;4.00;1.30;;;35.40;99.90;;;39.25;31.51;95283.69;646363;216;31485;-70
2022/08/22 10:55:25;;;;;;;2.40;1.60;;;34.10;99.90;;;39.34;30.83;95284.91;645311;212;31513;-71
2022/08/22 10:58:12;;;;;;;1.80;1.50;;;34.20;99.90;;;35.71;33.36;95285.99;618549;226;34390;-72
2022/08/22 11:00:54;;;;;;;1.50;1.40;;;31.10;99.90;;;38.04;32.47;95284.52;646034;212;31530;-73
2022/08/22 11:06:22;;;;;;;3.97;1.90;;;32.90;99.90;;;37.89;32.45;95274.19;646677;213;32415;-72
2022/08/22 11:09:20;;;;;;;2.20;1.40;;;34.00;99.90;;;37.04;34.92;95281.03;646760;216;32278;-72
2022/08/22 11:14:59;;;;;;;1.50;1.40;;;32.60;99.90;;;37.40;33.46;95282.82;646081;216;31744;-72
2022/08/22 11:20:54;;;;;;;3.00;1.60;;;29.40;99.90;;;34.87;34.76;95293.82;645790;216;32172;-73
2022/08/22 11:23:44;;;;;;;1.70;1.10;;;29.10;99.90;;;34.05;35.97;95288.94;645001;216;31737;-73
2022/08/22 11:26:45;;;;;;;3.53;2.10;;;29.00;99.90;;;31.52;38.20;95292.95;645767;212;31608;-73
2022/08/22 11:29:38;;;;;;;1.92;1.50;;;28.30;99.90;;;31.53;36.75;95294.59;645775;216;32167;-72
2022/08/22 11:32:33;;;;;;;2.85;1.50;;;27.90;99.90;;;31.24;38.44;95294.38;645259;216;31529;-73
2022/08/22 11:35:58;;;;;;;1.00;0.90;;;26.60;99.90;;;30.80;40.25;95288.16;646001;216;31594;-73
2022/08/22 11:38:51;;;;;;;1.48;1.10;;;28.00;99.90;;;30.90;41.41;95288.61;646664;216;31582;-73
2022/08/22 11:41:39;;;;;;;1.80;1.70;;;28.70;99.90;;;32.37;37.96;95285.56;647948;216;32069;-73
2022/08/22 11:44:20;;;;;;;1.80;1.30;;;29.40;1.00;;;31.75;38.41;95288.87;645829;212;31745;-72
2022/08/22 11:47:02;;;;;;;1.40;1.00;;;28.80;99.90;;;31.80;38.04;95286.38;645752;216;32400;-72
2022/08/22 11:49:59;;;;;;;1.20;0.70;;;28.60;99.90;;;31.99;38.93;95288.34;645621;212;31517;-72
2022/08/22 11:53:03;;;;;;;1.52;1.10;;;28.50;99.90;;;30.04;39.88;95295.03;647043;212;31647;-73
2022/08/22 11:58:42;;;;;;;1.40;1.30;;;29.50;99.90;;;33.57;35.97;95283.87;646714;216;31567;-71
2022/08/22 12:01:28;;;;;;;1.80;1.30;;;31.70;99.90;;;35.34;32.71;95272.33;645707;212;32004;-72
2022/08/22 12:07:15;;;;;;;2.40;1.20;;;32.90;99.90;;;36.91;31.85;95267.82;646886;216;32090;-72
2022/08/22 12:10:15;;;;;;;1.20;1.10;;;32.50;99.90;;;36.36;33.14;95266.33;646611;216;31536;-71
2022/08/22 12:13:05;;;;;;;1.90;1.30;;;33.20;99.90;;;36.55;31.00;95268.34;647247;216;31623;-72
2022/08/22 12:16:00;;;;;;;2.97;1.50;;;29.20;99.90;;;32.13;37.21;95276.53;640435;216;31694;-72
2022/08/22 12:19:07;;;;;;;1.48;1.20;;;28.30;1.00;;;33.74;35.32;95264.19;646016;216;31524;-72
2022/08/22 12:24:51;;;;;;;1.42;1.10;;;33.60;99.90;;;38.41;32.21;95253.63;646685;216;31706;-73
2022/08/22 12:27:51;;;;;;;3.00;1.40;;;33.40;99.90;;;39.14;30.86;95252.95;618100;225;31858;-74
2022/08/22 12:30:37;;;;;;;1.30;1.10;;;33.90;99.90;;;40.08;29.15;95242.12;645558;216;31557;-73
2022/08/22 12:36:14;;;;;;;1.50;1.20;;;33.60;99.90;;;35.53;33.08;95252.57;645287;216;31521;-73
2022/08/22 12:39:23;;;;;;;2.08;1.17;;;31.80;99.90;;;36.73;33.60;95249.49;647070;216;31584;-73
2022/08/22 12:45:09;;;;;;;1.20;1.10;;;33.50;99.90;;;40.91;29.71;95227.03;647867;212;31938;-74
2022/08/22 12:48:10;;;;;;;1.33;1.10;;;33.80;99.90;;;39.69;29.89;95230.75;645830;216;31528;-72
2022/08/22 12:50:57;;;;;;;1.40;1.00;;;33.70;99.90;;;39.00;28.53;95232.83;645857;216;31504;-73
2022/08/22 12:54:04;;;;;;;1.60;1.05;;;33.40;99.90;;;39.70;27.06;95235.44;647071;216;31453;-73
2022/08/22 12:57:10;;;;;;;1.40;1.10;;;33.80;99.90;;;41.93;26.40;95222.20;645690;216;32124;-74
2022/08/22 12:59:52;;;;;;;1.70;1.00;;;32.80;99.90;;;38.94;27.52;95222.79;646288;216;31572;-72
2022/08/22 13:02:33;;;;;;;1.40;0.70;;;32.20;99.90;;;39.21;26.82;95218.81;646873;216;31509;-73
2022/08/22 13:05:18;;;;;;;1.00;0.70;;;32.30;99.90;;;38.86;27.27;95217.00;645475;216;31572;-73
2022/08/22 13:08:04;;;;;;;0.93;0.73;;;33.00;99.90;;;37.98;29.21;95223.48;617452;226;31917;-73
2022/08/22 13:10:46;;;;;;;0.80;0.80;;;32.40;99.90;;;39.73;27.74;95222.72;647376;212;31601;-74
2022/08/22 13:13:28;;;;;;;0.98;0.88;;;33.20;99.90;;;39.71;27.77;95220.67;646373;216;31850;-71
2022/08/22 13:16:11;;;;;;;0.60;0.60;;;33.60;99.90;;;36.14;29.69;95220.97;638494;216;31736;-74
2022/08/22 13:18:55;;;;;;;1.33;1.05;;;31.30;99.90;;;39.62;27.66;95220.34;645994;212;43167;-73
2022/08/22 13:21:37;;;;;;;1.03;0.93;;;32.10;99.90;;;40.60;25.80;95209.91;617712;225;32787;-73
2022/08/22 13:24:22;;;;;;;1.02;0.85;;;32.00;99.90;;;37.81;28.48;95218.48;645744;216;31545;-73
2022/08/22 13:27:04;;;;;;;1.10;1.00;;;31.80;99.90;;;39.02;27.81;95211.03;645751;212;42143;-73
2022/08/22 13:30:01;;;;;;;1.05;0.80;;;32.60;99.90;;;37.87;28.33;95219.11;647470;212;31542;-73
2022/08/22 13:32:46;;;;;;;4.10;1.00;;;31.60;99.90;;;37.70;28.80;95226.28;646141;216;31487;-73
2022/08/22 13:35:53;;;;;;;1.30;0.80;;;31.80;99.90;;;39.57;27.42;95222.27;647346;216;31545;-74
2022/08/22 13:41:28;;;;;;;1.73;0.95;;;31.70;99.90;;;36.87;28.97;95219.10;645388;212;31635;-73
2022/08/22 13:44:11;;;;;;;1.40;0.80;;;31.20;99.90;;;35.27;29.57;95219.81;645724;216;32709;-73
2022/08/22 13:46:52;;;;;;;1.90;0.90;;;30.70;99.90;;;38.13;28.31;95217.20;647152;216;31829;-74
2022/08/22 13:49:38;;;;;;;1.10;0.90;;;32.20;99.90;;;38.02;27.23;95217.20;645331;216;31502;-73
2022/08/22 13:52:29;;;;;;;1.15;0.93;;;31.90;99.90;;;35.36;30.20;95221.79;644545;216;31514;-73
2022/08/22 13:55:17;;;;;;;0.80;0.80;;;31.30;99.90;;;37.16;29.24;95215.45;645588;216;31667;-73
2022/08/22 13:58:05;;;;;;;1.00;0.90;;;31.50;99.90;;;38.84;27.72;95207.34;646714;216;32012;-71
2022/08/22 14:00:56;;;;;;;1.92;0.82;;;32.90;99.90;;;39.04;27.64;95212.03;647094;212;32037;-71
2022/08/22 14:03:45;;;;;;;1.77;0.90;;;32.90;99.90;;;37.99;27.63;95210.83;646211;216;32405;-73